createdAt,value
2018-12-05T06:12:50.849Z,48.60
2018-12-05T06:15:19.866Z,47.00
2018-12-05T06:17:49.113Z,47.30
2018-12-05T06:20:18.364Z,47.50
2018-12-05T06:22:47.716Z,47.60
2018-12-05T06:25:17.274Z,47.60
2018-12-05T06:27:46.472Z,48.00
2018-12-05T06:30:15.773Z,47.80
2018-12-05T06:32:45.250Z,47.80
2018-12-05T06:35:14.483Z,47.60
2018-12-05T06:37:43.659Z,47.70
2018-12-05T06:40:13.065Z,47.60
2018-12-05T06:45:26.018Z,47.70
2018-12-05T06:47:55.399Z,47.60
2018-12-05T06:50:30.524Z,47.40
2018-12-05T06:52:59.801Z,47.40
2018-12-05T06:55:28.951Z,47.30
2018-12-05T06:57:57.928Z,47.40
2018-12-05T07:00:27.036Z,47.40
2018-12-05T07:02:56.198Z,47.20
2018-12-05T07:05:26.547Z,47.20
2018-12-05T07:07:56.234Z,47.10
2018-12-05T07:10:27.114Z,47.80
2018-12-05T07:12:56.763Z,47.10
2018-12-05T07:15:25.961Z,47.70
2018-12-05T07:17:55.305Z,47.00
2018-12-05T07:20:24.509Z,47.10
2018-12-05T07:22:53.677Z,47.10
2018-12-05T07:25:23.188Z,47.00
2018-12-05T07:27:52.725Z,47.70
2018-12-05T07:30:29.328Z,47.30
2018-12-05T07:32:52.284Z,47.10
2018-12-05T07:35:21.784Z,47.50
2018-12-05T07:37:51.433Z,47.20
2018-12-05T07:40:21.930Z,46.90
2018-12-05T07:42:52.592Z,47.50
2018-12-05T07:45:22.482Z,47.60
2018-12-05T07:47:59.066Z,46.90
2018-12-05T07:50:28.928Z,46.80
2018-12-05T07:52:57.968Z,46.50
2018-12-05T07:55:27.516Z,46.30
2018-12-05T07:57:57.007Z,46.90
2018-12-05T08:00:26.510Z,46.20
2018-12-05T08:02:55.330Z,46.20
2018-12-05T08:05:24.520Z,46.10
2018-12-05T08:07:53.765Z,46.20
2018-12-05T08:10:23.075Z,46.10
2018-12-05T08:12:52.084Z,46.60
2018-12-05T08:15:20.943Z,46.50
2018-12-05T08:17:50.036Z,45.80
2018-12-05T08:20:19.179Z,45.90
2018-12-05T08:22:48.643Z,45.80
2018-12-05T08:25:17.651Z,46.20
2018-12-05T08:27:46.988Z,46.20
2018-12-05T08:30:16.565Z,46.20
2018-12-05T08:32:46.113Z,46.20
2018-12-05T08:35:15.366Z,46.30
2018-12-05T08:37:44.512Z,46.00
2018-12-05T08:40:13.847Z,46.00
2018-12-05T08:42:43.290Z,46.50
2018-12-05T08:45:13.439Z,46.20
2018-12-05T08:47:42.234Z,45.90
2018-12-05T08:50:11.005Z,46.30
2018-12-05T08:52:40.924Z,46.10
2018-12-05T08:55:09.718Z,45.80
2018-12-05T08:57:39.274Z,45.80
2018-12-05T09:00:10.336Z,46.00
2018-12-05T09:02:39.333Z,45.80
2018-12-05T09:05:08.868Z,46.10
2018-12-05T09:07:38.431Z,45.80
2018-12-05T09:10:07.340Z,45.90
2018-12-05T09:12:36.416Z,45.60
2018-12-05T09:15:07.179Z,45.70
2018-12-05T09:17:34.809Z,45.90
2018-12-05T09:20:04.009Z,45.60
2018-12-05T09:22:41.011Z,45.40
2018-12-05T09:25:03.442Z,45.70
2018-12-05T09:27:32.779Z,46.00
2018-12-05T09:30:02.228Z,46.10
2018-12-05T09:32:31.480Z,46.10
2018-12-05T09:37:29.287Z,46.00
2018-12-05T09:39:58.607Z,45.50
2018-12-05T09:42:27.833Z,45.30
2018-12-05T09:44:57.374Z,45.20
2018-12-05T09:47:26.815Z,44.80
2018-12-05T09:49:56.401Z,45.10
2018-12-05T09:52:25.910Z,45.10
2018-12-05T09:54:55.795Z,45.10
2018-12-05T09:57:26.335Z,45.00
2018-12-05T09:59:55.811Z,44.90
2018-12-05T10:02:24.676Z,44.90
2018-12-05T10:04:53.675Z,45.00
2018-12-05T10:07:23.195Z,45.50
2018-12-05T10:09:52.142Z,45.00
2018-12-05T10:12:20.967Z,44.90
2018-12-05T10:14:50.203Z,44.90
2018-12-05T10:17:19.772Z,45.60
2018-12-05T10:19:49.502Z,45.10
2018-12-05T10:22:19.114Z,44.90
2018-12-05T10:24:48.953Z,44.90
2018-12-05T10:27:18.013Z,44.90
2018-12-05T10:29:47.646Z,44.80
2018-12-05T10:32:17.352Z,45.00
2018-12-05T10:34:46.907Z,44.90
2018-12-05T10:39:44.853Z,45.20
2018-12-05T10:42:14.501Z,45.70
2018-12-05T10:44:43.358Z,45.00
2018-12-05T10:47:12.801Z,45.00
2018-12-05T10:49:42.056Z,44.90
2018-12-05T10:52:11.644Z,45.00
2018-12-05T10:54:41.374Z,45.60
2018-12-05T10:57:10.472Z,45.70
2018-12-05T10:59:39.694Z,45.60
2018-12-05T11:02:15.657Z,45.30
2018-12-05T11:04:50.241Z,45.30
2018-12-05T11:07:25.971Z,45.10
2018-12-05T11:10:00.975Z,45.30
2018-12-05T11:12:36.026Z,45.50
2018-12-05T11:15:10.654Z,45.30
2018-12-05T11:17:46.455Z,45.30
2018-12-05T11:20:21.158Z,45.40
2018-12-05T11:22:55.906Z,45.20
2018-12-05T11:25:25.166Z,45.30
2018-12-05T11:27:54.801Z,45.10
2018-12-05T11:30:24.000Z,45.20
2018-12-05T11:32:53.830Z,45.40
2018-12-05T11:35:23.225Z,45.20
2018-12-05T11:37:53.080Z,45.00
2018-12-05T11:40:22.235Z,45.50
2018-12-05T11:42:51.454Z,45.00
2018-12-05T11:45:20.735Z,45.50
2018-12-05T11:47:49.545Z,45.40
2018-12-05T11:50:18.772Z,45.60
2018-12-05T11:52:48.662Z,45.40
2018-12-05T11:55:18.398Z,45.20
2018-12-05T11:57:47.730Z,45.40
2018-12-05T12:00:17.512Z,45.40
2018-12-05T12:02:47.337Z,46.10
2018-12-05T12:05:17.143Z,45.40
2018-12-05T12:07:46.369Z,45.40
2018-12-05T12:10:15.360Z,45.50
2018-12-05T12:12:49.970Z,45.50
2018-12-05T12:15:19.204Z,45.30
2018-12-05T12:17:48.888Z,45.40
2018-12-05T12:20:18.451Z,45.40
2018-12-05T12:22:48.089Z,45.30
2018-12-05T12:25:17.100Z,45.30
2018-12-05T12:27:46.360Z,45.30
2018-12-05T12:30:16.194Z,46.30
2018-12-05T12:32:45.357Z,45.60
2018-12-05T12:35:15.017Z,45.60
2018-12-05T12:37:44.557Z,45.50
2018-12-05T12:40:14.071Z,45.60
2018-12-05T12:42:44.229Z,45.80
2018-12-05T12:45:13.426Z,45.70
2018-12-05T12:47:42.601Z,45.90
2018-12-05T12:50:12.251Z,45.60
2018-12-05T12:52:41.527Z,46.50
2018-12-05T12:55:10.815Z,45.80
2018-12-05T12:57:40.206Z,45.70
2018-12-05T13:00:10.844Z,45.80
2018-12-05T13:02:40.321Z,45.80
2018-12-05T13:05:09.948Z,46.60
2018-12-05T13:10:08.225Z,46.30
2018-12-05T13:12:37.503Z,46.00
2018-12-05T13:15:06.331Z,45.90
2018-12-05T13:17:35.895Z,45.80
2018-12-05T13:20:05.278Z,45.90
2018-12-05T13:22:34.765Z,46.00
2018-12-05T13:25:04.775Z,46.00
2018-12-05T13:27:34.561Z,45.90
2018-12-05T13:30:03.401Z,45.90
2018-12-05T13:32:32.500Z,46.10
2018-12-05T13:35:01.829Z,46.10
2018-12-05T13:37:31.047Z,46.30
2018-12-05T13:40:00.592Z,46.30
2018-12-05T13:42:29.955Z,46.00
2018-12-05T13:44:59.147Z,46.10
2018-12-05T13:47:29.339Z,46.20
2018-12-05T13:49:58.409Z,46.20
2018-12-05T13:52:28.491Z,46.30
2018-12-05T13:54:58.149Z,46.20
2018-12-05T13:57:27.543Z,46.30
2018-12-05T13:59:56.725Z,46.30
2018-12-05T14:02:26.017Z,46.30
2018-12-05T14:04:55.684Z,46.30
2018-12-05T14:07:25.001Z,46.40
2018-12-05T14:09:54.379Z,46.30
2018-12-05T14:12:28.155Z,46.30
2018-12-05T14:14:57.796Z,46.30
2018-12-05T14:17:27.492Z,46.10
2018-12-05T14:19:56.804Z,46.30
2018-12-05T14:22:26.337Z,46.40
2018-12-05T14:24:55.863Z,46.30
2018-12-05T14:27:25.259Z,46.20
2018-12-05T14:29:54.783Z,46.40
2018-12-05T14:32:23.934Z,46.30
2018-12-05T14:37:21.926Z,46.30
2018-12-05T14:39:51.609Z,46.30
2018-12-05T14:42:21.330Z,46.20
2018-12-05T14:44:51.079Z,46.30
2018-12-05T14:47:19.906Z,46.20
2018-12-05T14:49:49.045Z,46.20
2018-12-05T14:52:18.621Z,46.20
2018-12-05T14:54:47.608Z,46.20
2018-12-05T14:57:16.926Z,46.20
2018-12-05T14:59:48.595Z,46.20
2018-12-05T15:02:18.116Z,46.40
2018-12-05T15:04:46.896Z,46.30
2018-12-05T15:07:16.442Z,46.20
2018-12-05T15:09:46.255Z,46.30
2018-12-05T15:12:15.049Z,46.30
2018-12-05T15:14:44.395Z,46.30
2018-12-05T15:17:14.061Z,46.20
2018-12-05T15:19:42.901Z,46.20
2018-12-05T15:22:12.062Z,46.30
2018-12-05T15:24:41.588Z,46.20
2018-12-05T15:27:11.072Z,46.20
2018-12-05T15:29:40.269Z,46.30
2018-12-05T15:34:38.054Z,46.30
2018-12-05T15:37:07.363Z,46.40
2018-12-05T15:39:36.228Z,46.30
2018-12-05T15:42:05.069Z,46.20
2018-12-05T15:44:34.613Z,46.30
2018-12-05T15:47:04.381Z,46.30
2018-12-05T15:49:34.921Z,46.50
2018-12-05T15:52:03.806Z,46.50
2018-12-05T15:54:33.463Z,46.40
2018-12-05T15:57:09.678Z,46.30
2018-12-05T15:59:32.191Z,46.30
2018-12-05T16:02:01.350Z,46.30
2018-12-05T16:04:30.804Z,46.80
2018-12-05T16:07:00.087Z,46.30
2018-12-05T16:09:29.513Z,46.30
2018-12-05T16:11:59.528Z,46.20
2018-12-05T16:14:28.364Z,46.20
2018-12-05T16:19:27.041Z,46.30
2018-12-05T16:21:56.065Z,46.20
2018-12-05T16:24:25.168Z,46.30
2018-12-05T16:26:54.391Z,46.20
2018-12-05T16:29:23.721Z,46.30
2018-12-05T16:31:53.609Z,46.30
2018-12-05T16:34:23.012Z,46.30
2018-12-05T16:36:52.437Z,46.30
2018-12-05T16:39:24.203Z,46.30
2018-12-05T16:41:53.898Z,46.20
2018-12-05T16:44:23.234Z,46.70
2018-12-05T16:46:51.969Z,46.30
2018-12-05T16:49:21.279Z,46.30
2018-12-05T16:51:50.916Z,46.20
2018-12-05T16:54:20.426Z,46.20
2018-12-05T16:56:49.367Z,46.20
2018-12-05T16:59:18.601Z,46.10
2018-12-05T17:01:49.679Z,46.10
2018-12-05T17:04:19.310Z,46.00
2018-12-05T17:06:48.813Z,46.10
2018-12-05T17:09:17.683Z,46.00
2018-12-05T17:11:46.698Z,46.00
2018-12-05T17:14:16.243Z,46.00
2018-12-05T17:16:45.525Z,46.00
2018-12-05T17:19:14.933Z,45.90
2018-12-05T17:21:44.054Z,46.00
2018-12-05T17:24:13.745Z,45.90
2018-12-05T17:26:43.027Z,45.90
2018-12-05T17:29:17.592Z,46.00
2018-12-05T17:31:49.276Z,46.00
2018-12-05T17:34:19.685Z,46.00
2018-12-05T17:36:48.968Z,46.00
2018-12-05T17:39:18.584Z,46.00
2018-12-05T17:41:47.809Z,46.00
2018-12-05T17:44:17.292Z,46.00
2018-12-05T17:46:47.668Z,46.00
2018-12-05T17:49:17.231Z,46.00
2018-12-05T17:51:47.183Z,45.90
2018-12-05T17:54:16.309Z,45.90
2018-12-05T17:56:45.465Z,45.90
2018-12-05T17:59:14.595Z,46.00
2018-12-05T18:01:44.448Z,46.00
2018-12-05T18:04:14.532Z,46.00
2018-12-05T18:06:44.039Z,45.80
2018-12-05T18:09:13.390Z,45.80
2018-12-05T18:11:43.017Z,46.00
2018-12-05T18:14:12.965Z,45.80
2018-12-05T18:16:42.393Z,45.90
2018-12-05T18:19:11.886Z,45.90
2018-12-05T18:21:40.997Z,45.90
2018-12-05T18:24:10.501Z,45.90
2018-12-05T18:26:40.034Z,46.00
2018-12-05T18:29:09.726Z,46.00
2018-12-05T18:31:39.530Z,46.10
2018-12-05T18:34:09.091Z,46.10
2018-12-05T18:36:38.383Z,46.20
2018-12-05T18:39:08.530Z,46.00
2018-12-05T18:41:38.581Z,46.10
2018-12-05T18:44:07.932Z,46.10
2018-12-05T18:46:37.715Z,46.10
2018-12-05T18:49:07.369Z,46.00
2018-12-05T18:51:37.234Z,46.80
2018-12-05T18:54:06.687Z,46.20
2018-12-05T18:56:36.446Z,46.10
2018-12-05T18:59:05.705Z,46.20
2018-12-05T19:01:35.163Z,46.30
2018-12-05T19:04:05.327Z,46.10
2018-12-05T19:06:34.857Z,46.30
2018-12-05T19:11:33.619Z,46.40
2018-12-05T19:14:08.471Z,46.50
2018-12-05T19:19:07.843Z,46.60
2018-12-05T19:21:37.371Z,46.50
2018-12-05T19:24:07.294Z,46.50
2018-12-05T19:26:36.895Z,46.50
2018-12-05T19:29:06.602Z,46.50
2018-12-05T19:31:36.201Z,46.50
2018-12-05T19:34:05.727Z,46.50
2018-12-05T19:36:35.133Z,46.40
2018-12-05T19:39:05.306Z,46.50
2018-12-05T19:41:34.823Z,46.60
2018-12-05T19:44:04.754Z,46.70
2018-12-05T19:46:34.609Z,46.60
2018-12-05T19:49:03.992Z,46.60
2018-12-05T19:51:34.442Z,46.80
2018-12-05T19:54:04.203Z,46.70
2018-12-05T19:56:34.413Z,46.70
2018-12-05T19:59:03.717Z,46.60
2018-12-05T20:01:32.566Z,46.60
2018-12-05T20:04:02.213Z,46.70
2018-12-05T20:06:31.588Z,46.70
2018-12-05T20:09:01.409Z,46.60
2018-12-05T20:11:31.018Z,46.60
2018-12-05T20:14:02.979Z,46.60
2018-12-05T20:16:32.675Z,46.70
2018-12-05T20:19:04.429Z,46.70
2018-12-05T20:24:03.209Z,47.40
2018-12-05T20:26:32.578Z,46.80
2018-12-05T20:29:02.767Z,46.80
2018-12-05T20:31:32.610Z,47.50
2018-12-05T20:34:01.608Z,46.70
2018-12-05T20:36:32.245Z,46.80
2018-12-05T20:39:03.831Z,46.80
2018-12-05T20:41:34.024Z,46.90
2018-12-05T20:44:03.207Z,46.90
2018-12-05T20:46:34.284Z,46.90
2018-12-05T20:49:03.915Z,46.90
2018-12-05T20:51:33.288Z,46.90
2018-12-05T20:54:03.738Z,46.90
2018-12-05T20:56:38.412Z,46.90
2018-12-05T20:59:09.912Z,46.90
2018-12-05T21:01:38.734Z,47.00
2018-12-05T21:04:08.071Z,46.90
2018-12-05T21:06:37.322Z,47.00
2018-12-05T21:09:08.815Z,47.10
2018-12-05T21:11:41.476Z,47.00
2018-12-05T21:14:13.973Z,47.10
2018-12-05T21:16:43.529Z,47.10
2018-12-05T21:19:13.014Z,47.10
2018-12-05T21:21:43.091Z,47.10
2018-12-05T21:24:12.772Z,47.20
2018-12-05T21:26:41.711Z,47.20
2018-12-05T21:29:11.000Z,47.20
2018-12-05T21:31:40.770Z,47.30
2018-12-05T21:34:09.749Z,47.30
2018-12-05T21:36:38.725Z,47.30
2018-12-05T21:39:09.160Z,47.30
2018-12-05T21:41:39.043Z,47.30
2018-12-05T21:44:08.613Z,47.30
2018-12-05T21:46:37.997Z,47.30
2018-12-05T21:49:08.228Z,47.50
2018-12-05T21:51:39.187Z,47.50
2018-12-05T21:54:08.896Z,47.40
2018-12-05T21:56:40.650Z,47.50
